Relevés horaires Laegern (Suisse)


Relevés horaires à Laegern - Mercredi 24 Févr. 2021
Heure UTC1 Température [°C] Vent [km/h] Hum. [%] Pres.4 [hPa] Visi. [Km] Nébu. [octa] Préc.5 [mm] Cond.
2m. Res. Ros. Dir.2 Vit. Moy. Raf.3
23:00 11.8 11.8 4.3 S 0.0 -- 14.8 60 850(-0.5/3h) -- -- -- --
22:00 12.0 12.0 4.5 S 0.0 -- 14.8 60 850(-0.3/3h) -- -- -- --
21:00 12.2 12.2 5.1 SE 0.0 -- 20.4 62 850(-0.5/3h) -- -- -- --
20:00 12.4 12.4 3.9 SE 0.0 -- 20.4 56 850(-0.3/3h) -- -- -- --
19:00 13.1 13.1 4.0 ESE 0.0 -- 18.5 54 850(-0.5/3h) -- -- -- --
18:00 14.0 14.0 2.9 ESE 0.0 -- 16.7 47 850(-0.5/3h) -- -- -- --
17:00 13.4 13.4 1.7 E 0.0 -- 11.1 45 850(-0.9/3h) -- -- -- --
16:00 14.1 14.1 3.8 ESE 0.0 -- 7.4 50 850(-1.0/3h) -- -- -- --
15:00 14.5 14.5 3.6 S 0.0 -- 14.8 48 850(-1.4/3h) -- -- -- --
14:00 14.2 14.2 3.4 SSE 0.0 -- 14.8 48 850(-1.6/3h) -- -- -- --
13:00 13.3 13.3 3.4 S 0.0 -- 9.3 51 850(-1.7/3h) -- -- -- --
12:00 12.7 12.7 3.1 S 0.0 -- 14.8 52 850(-1.1/3h) -- -- -- --
11:00 12.1 12.1 2.0 SSO 0.0 -- 13.0 50 850(-0.6/3h) -- -- -- --
10:00 11.0 11.0 0.7 S 0.0 -- 13.0 49 850(-0.1/3h) -- -- -- --
09:00 10.6 10.6 1.2 S 0.0 -- 14.8 52 850(0.1/3h) -- -- -- --
08:00 9.5 9.5 0.7 S 0.0 -- 9.3 54 850(0.0/3h) -- -- -- --
07:00 9.3 9.3 0.5 S 0.0 -- 14.8 54 850(-0.2/3h) -- -- -- --
06:00 9.3 9.3 0.5 S 0.0 -- 25.9 54 850(-0.3/3h) -- -- -- --
05:00 9.5 9.5 0.7 SSO 0.0 -- 25.9 54 850(-0.3/3h) -- -- -- --
04:00 8.7 8.7 0.4 SSO 0.0 -- 20.4 56 850(-0.6/3h) -- -- -- --
03:00 9.7 9.7 0.3 SSO 0.0 -- 20.4 52 850(-0.5/3h) -- -- -- --
02:00 10.2 10.2 -0.6 SSO 0.0 -- 20.4 47 850(-0.5/3h) -- -- -- --
01:00 10.7 10.7 -0.7 SSO 0.0 -- 20.4 45 850(-0.1/3h) -- -- -- --
00:00 11.0 11.0 -0.8 S 0.0 -- 20.4 44 850(-0.2/3h) -- -- -- --

1 Coordinated Universal Time. Actuellement il est 23:00 locale et 21:00 UTC.

2 Le vent souffle depuis la direction indiquée vers la direction oposée.

3 Les rafales max. sont disponible 40 min après l'heure du relevé.

4 Pour les stations d'altitude (plus de 600m) le géopotentiel du niveau le plus proche de la pression obligatoire est indiqué.

5 Les stations disposant d'un diffuseur peuvent indiquer "trace". Cela signifie que des précipitations ont touchés le sol mais que la quantité est inférieure à 0.1 mm.

Copyright

Les données affichées sur cette page sont la propriété exclusive de Météo Suisse.

Récapitulatif de la journée
Température [°C] Vent [km/h] Ensoleillement4 [h] Precipitations totale5 [mm] Pression [Hpa]
Min1 Max.2 Moy.3 Max. Min Max.
8.7 14.7 0 25.9 8 h 6 min 0 850.0 850.0

1 Température minimale relevée entre 18:00 UTC la veille et 18:00 UTC le jour donné.

2 Température maximale relevée entre 06:00 UTC le jour donné et 06:00 UTC le lendemain.

3 Vent moyen de la journée basé sur les relevés horaires.

4 Ensoleillement en heures relevé entre 06:00 UTC la veille et 06:00 UTC le jour donné.

5 Précipitations totales tombées entre 06:00 UTC la jour donné et 06:00 UTC le lendemain.

Graphiques horaires